Time;durP1;ratioP1;P1;durP2;ratioP2;P2;SDS_P1;SDS_P2;PMS_P1;PMS_P2;Temp;Humidity;BMP_temperature;BMP_pressure;BME280_temperature;BME280_humidity;BME280_pressure;Samples;Min_cycle;Max_cycle;Signal;HPM_P1;HPM_P2
2021/12/06 15:34:52;;;;;;;;;;;8.50;1.00;;;;;;5114065;27;19916;-83
2021/12/06 15:37:25;;;;;;;;;;;7.30;1.00;;;;;;5092681;28;19916;-84
2021/12/06 15:40:10;;;;;;;;;;;7.20;1.00;;;;;;5088279;28;19917;-84
2021/12/06 15:42:36;;;;;;;;;;;7.10;1.00;;;;;;5084705;28;20258;-85
2021/12/06 15:45:02;;;;;;;;;;;7.00;1.00;;;;;;5062162;28;19915;-85
2021/12/06 15:47:37;;;;;;;;;;;7.00;1.00;;;;;;5073850;28;19912;-86
2021/12/06 15:50:07;;;;;;;;;;;6.90;1.00;;;;;;5063985;28;20006;-86
2021/12/06 15:52:33;;;;;;;;;;;6.90;1.00;;;;;;5063952;28;20007;-85
2021/12/06 15:55:01;;;;;;;;;;;6.90;1.00;;;;;;5065301;28;19944;-85
2021/12/06 15:57:29;;;;;;;;;;;6.80;1.00;;;;;;5048069;28;19920;-85
2021/12/06 16:00:05;;;;;;;;;;;6.80;1.00;;;;;;5052729;28;19995;-85
2021/12/06 16:02:33;;;;;;;;;;;6.70;1.00;;;;;;5067884;28;20003;-86
2021/12/06 16:05:05;;;;;;;;;;;6.70;1.00;;;;;;5061877;28;19952;-86
2021/12/06 16:07:33;;;;;;;;;;;6.60;1.00;;;;;;5043524;28;19956;-86
2021/12/06 16:09:59;;;;;;;;;;;6.50;1.00;;;;;;5058304;28;19913;-86
2021/12/06 16:12:25;;;;;;;;;;;6.50;1.00;;;;;;5055185;28;19912;-85
2021/12/06 16:14:50;;;;;;;;;;;6.40;1.00;;;;;;5061338;28;19920;-86
2021/12/06 16:17:16;;;;;;;;;;;6.40;1.00;;;;;;5070516;28;19991;-85
2021/12/06 16:19:42;;;;;;;;;;;6.30;1.00;;;;;;5053037;28;19924;-85
2021/12/06 16:22:08;;;;;;;;;;;6.20;1.00;;;;;;5069649;28;19919;-85
2021/12/06 16:24:35;;;;;;;;;;;6.20;1.00;;;;;;5062193;28;19909;-85
2021/12/06 16:27:10;;;;;;;;;;;6.10;1.00;;;;;;5062034;28;19917;-85
2021/12/06 16:29:39;;;;;;;;;;;6.10;1.00;;;;;;5050107;28;20270;-85
2021/12/06 16:32:09;;;;;;;;;;;6.10;1.00;;;;;;5032182;28;20377;-85
2021/12/06 16:34:37;;;;;;;;;;;6.10;1.00;;;;;;5052348;28;19909;-85
2021/12/06 16:37:05;;;;;;;;;;;6.10;1.00;;;;;;5046889;28;19920;-86
2021/12/06 16:39:35;;;;;;;;;;;5.90;1.00;;;;;;5049927;28;19920;-86
2021/12/06 16:42:08;;;;;;;;;;;5.80;1.00;;;;;;5063731;28;20351;-86
2021/12/06 16:44:40;;;;;;;;;;;5.70;1.00;;;;;;5056971;28;19955;-85
2021/12/06 16:47:14;;;;;;;;;;;5.60;1.00;;;;;;5040215;28;19920;-85
2021/12/06 16:49:42;;;;;;;;;;;5.40;1.00;;;;;;5065292;28;19956;-85
2021/12/06 16:52:13;;;;;;;;;;;5.40;1.00;;;;;;5062741;28;19913;-85
2021/12/06 16:54:38;;;;;;;;;;;5.20;1.00;;;;;;5056195;28;19913;-86
2021/12/06 16:57:05;;;;;;;;;;;5.20;1.00;;;;;;5053118;28;19936;-86
2021/12/06 16:59:40;;;;;;;;;;;5.20;1.00;;;;;;5037677;28;19999;-86
2021/12/06 17:02:10;;;;;;;;;;;5.30;1.00;;;;;;5050374;28;19913;-85
2021/12/06 17:04:39;;;;;;;;;;;5.30;1.00;;;;;;5038465;28;19979;-86
2021/12/06 17:07:20;;;;;;;;;;;5.40;1.00;;;;;;5054648;28;20015;-86
2021/12/06 17:09:45;;;;;;;;;;;5.50;1.00;;;;;;5049627;28;19913;-86
2021/12/06 17:12:11;;;;;;;;;;;5.50;1.00;;;;;;5017753;28;20261;-86
2021/12/06 17:14:36;;;;;;;;;;;5.50;1.00;;;;;;5036286;28;19913;-86
2021/12/06 17:17:02;;;;;;;;;;;5.50;1.00;;;;;;5023173;28;20384;-86
2021/12/06 17:19:29;;;;;;;;;;;5.50;1.00;;;;;;5030332;28;19920;-86
2021/12/06 17:22:04;;;;;;;;;;;5.50;1.00;;;;;;5057104;28;19909;-86
2021/12/06 17:24:34;;;;;;;;;;;5.60;1.00;;;;;;5038278;28;20361;-87
2021/12/06 17:26:59;;;;;;;;;;;5.60;1.00;;;;;;5058934;28;19913;-87
2021/12/06 17:29:26;;;;;;;;;;;5.60;1.00;;;;;;5041280;28;19917;-87
2021/12/06 17:31:57;;;;;;;;;;;5.70;1.00;;;;;;5034741;28;20359;-88
2021/12/06 17:34:24;;;;;;;;;;;5.60;1.00;;;;;;5051458;28;20287;-86
2021/12/06 17:36:52;;;;;;;;;;;5.60;1.00;;;;;;5049333;28;19944;-87
2021/12/06 17:39:24;;;;;;;;;;;5.70;1.00;;;;;;5052397;28;19917;-87
2021/12/06 17:41:50;;;;;;;;;;;5.70;1.00;;;;;;5020097;28;20262;-87
2021/12/06 17:44:17;;;;;;;;;;;5.80;1.00;;;;;;5034786;28;19920;-87
2021/12/06 17:46:43;;;;;;;;;;;5.80;1.00;;;;;;5035199;28;20002;-87
2021/12/06 17:49:10;;;;;;;;;;;5.70;1.00;;;;;;5042653;28;19921;-87
2021/12/06 17:51:36;;;;;;;;;;;5.70;1.00;;;;;;5042691;28;19914;-87
2021/12/06 17:54:02;;;;;;;;;;;5.60;1.00;;;;;;5041137;28;20013;-87
2021/12/06 17:56:28;;;;;;;;;;;5.60;1.00;;;;;;5053826;28;19962;-87
2021/12/06 17:58:55;;;;;;;;;;;5.60;1.00;;;;;;5055940;28;20361;-87
2021/12/06 18:01:25;;;;;;;;;;;5.50;1.00;;;;;;5021723;28;19995;-87
2021/12/06 18:03:51;;;;;;;;;;;5.50;1.00;;;;;;5057312;28;19915;-87
2021/12/06 18:06:16;;;;;;;;;;;5.50;1.00;;;;;;5040149;28;19917;-87
2021/12/06 18:08:42;;;;;;;;;;;5.40;1.00;;;;;;5035605;28;19947;-87
2021/12/06 18:11:07;;;;;;;;;;;5.40;1.00;;;;;;5052729;28;19955;-86
2021/12/06 18:13:33;;;;;;;;;;;5.40;1.00;;;;;;5053175;28;19909;-87
2021/12/06 18:15:59;;;;;;;;;;;5.40;1.00;;;;;;5047709;28;20015;-87
2021/12/06 18:18:24;;;;;;;;;;;5.40;1.00;;;;;;5035181;28;19925;-86
2021/12/06 18:20:51;;;;;;;;;;;5.30;1.00;;;;;;5050508;28;19920;-86
2021/12/06 18:23:17;;;;;;;;;;;5.30;1.00;;;;;;5027451;28;19920;-87
2021/12/06 18:25:42;;;;;;;;;;;5.30;1.00;;;;;;5051036;28;19916;-86
2021/12/06 18:28:08;;;;;;;;;;;5.20;1.00;;;;;;5065713;28;19966;-86
2021/12/06 18:30:34;;;;;;;;;;;5.20;1.00;;;;;;5049164;28;20011;-86
2021/12/06 18:33:00;;;;;;;;;;;5.20;1.00;;;;;;5056401;28;20373;-87
2021/12/06 18:35:29;;;;;;;;;;;5.20;1.00;;;;;;5070894;28;20358;-85
2021/12/06 18:37:55;;;;;;;;;;;5.20;1.00;;;;;;5082720;28;19931;-86
2021/12/06 18:40:40;;;;;;;;;;;5.20;1.00;;;;;;5059574;28;19913;-83
2021/12/06 18:43:06;;;;;;;;;;;5.30;1.00;;;;;;5044707;28;19909;-84
2021/12/06 18:45:33;;;;;;;;;;;5.30;1.00;;;;;;5059457;28;19913;-84
2021/12/06 18:48:01;;;;;;;;;;;5.30;1.00;;;;;;5043047;28;19913;-84
2021/12/06 18:50:28;;;;;;;;;;;5.30;1.00;;;;;;5047987;28;19967;-83
2021/12/06 18:52:58;;;;;;;;;;;5.30;1.00;;;;;;5049341;28;19935;-86
2021/12/06 18:55:24;;;;;;;;;;;5.40;1.00;;;;;;5055494;28;19951;-86
2021/12/06 18:57:49;;;;;;;;;;;5.40;1.00;;;;;;5064736;28;19912;-86
2021/12/06 19:00:17;;;;;;;;;;;5.40;1.00;;;;;;5043352;28;19916;-87
2021/12/06 19:02:42;;;;;;;;;;;5.40;1.00;;;;;;5068267;28;19909;-87
2021/12/06 19:05:09;;;;;;;;;;;5.30;1.00;;;;;;5072159;28;19916;-86
2021/12/06 19:07:35;;;;;;;;;;;5.30;1.00;;;;;;5076650;28;19913;-87
2021/12/06 19:10:00;;;;;;;;;;;5.20;1.00;;;;;;5036355;28;19992;-87
2021/12/06 19:12:26;;;;;;;;;;;5.20;1.00;;;;;;5058217;28;20460;-87
2021/12/06 19:14:51;;;;;;;;;;;5.10;1.00;;;;;;5040407;28;19909;-86
2021/12/06 19:17:17;;;;;;;;;;;5.20;1.00;;;;;;5041082;28;19944;-86
2021/12/06 19:19:43;;;;;;;;;;;5.00;1.00;;;;;;5040582;28;19999;-86
2021/12/06 19:22:09;;;;;;;;;;;5.00;1.00;;;;;;5039708;28;20292;-86
2021/12/06 19:24:35;;;;;;;;;;;4.90;99.90;;;;;;5037458;28;20388;-86
2021/12/06 19:27:01;;;;;;;;;;;4.80;99.90;;;;;;5045233;28;19913;-87
2021/12/06 19:29:26;;;;;;;;;;;4.90;1.00;;;;;;5058840;28;19995;-86
2021/12/06 19:31:52;;;;;;;;;;;4.80;1.00;;;;;;5056093;28;19987;-87
2021/12/06 19:34:17;;;;;;;;;;;4.80;99.90;;;;;;5056809;28;19913;-86
2021/12/06 19:36:43;;;;;;;;;;;4.90;99.90;;;;;;5056379;28;19912;-86
2021/12/06 19:39:09;;;;;;;;;;;4.80;99.90;;;;;;5055332;28;19917;-87
2021/12/06 19:41:34;;;;;;;;;;;4.80;1.00;;;;;;5038306;28;20408;-87
2021/12/06 19:44:00;;;;;;;;;;;4.90;99.90;;;;;;5052214;28;19943;-86
2021/12/06 19:46:26;;;;;;;;;;;4.90;99.90;;;;;;5037731;28;19936;-86
2021/12/06 19:48:52;;;;;;;;;;;4.90;93.90;;;;;;5055867;28;19909;-87
2021/12/06 19:51:22;;;;;;;;;;;5.00;99.90;;;;;;5040760;28;19920;-87
2021/12/06 19:53:49;;;;;;;;;;;5.00;1.00;;;;;;5055889;28;19920;-86
2021/12/06 19:56:14;;;;;;;;;;;4.90;99.90;;;;;;5059882;28;19967;-87
2021/12/06 19:58:40;;;;;;;;;;;4.90;99.90;;;;;;5046937;28;19917;-86
2021/12/06 20:01:07;;;;;;;;;;;4.90;1.00;;;;;;5057264;28;19913;-87
2021/12/06 20:03:34;;;;;;;;;;;4.90;35.50;;;;;;5058979;28;19909;-87
2021/12/06 20:05:59;;;;;;;;;;;4.80;99.90;;;;;;5057898;28;20012;-86
2021/12/06 20:08:25;;;;;;;;;;;4.80;95.20;;;;;;5059881;28;19976;-87
2021/12/06 20:10:54;;;;;;;;;;;4.80;99.90;;;;;;5029936;28;19920;-87
2021/12/06 20:13:20;;;;;;;;;;;4.70;99.90;;;;;;5025272;28;20547;-84
2021/12/06 20:15:46;;;;;;;;;;;4.70;99.90;;;;;;5054875;28;19958;-85
2021/12/06 20:18:13;;;;;;;;;;;4.70;99.90;;;;;;5056172;28;19919;-85
2021/12/06 20:20:39;;;;;;;;;;;4.60;99.90;;;;;;5039282;28;19918;-86
2021/12/06 20:23:05;;;;;;;;;;;4.60;1.00;;;;;;5030521;28;19913;-85
2021/12/06 20:25:35;;;;;;;;;;;4.50;99.90;;;;;;5050273;28;19925;-83
2021/12/06 20:28:02;;;;;;;;;;;4.50;99.90;;;;;;5054204;28;19927;-84
2021/12/06 20:30:28;;;;;;;;;;;4.40;99.90;;;;;;5069041;28;19920;-83
2021/12/06 20:32:53;;;;;;;;;;;4.30;1.00;;;;;;5059614;28;19992;-84
2021/12/06 20:35:19;;;;;;;;;;;4.10;1.00;;;;;;5060813;28;19912;-83
2021/12/06 20:37:45;;;;;;;;;;;4.00;1.00;;;;;;5064980;28;19913;-83
2021/12/06 20:40:11;;;;;;;;;;;4.00;1.00;;;;;;5063863;28;19912;-84
2021/12/06 20:42:36;;;;;;;;;;;4.00;1.00;;;;;;5056763;28;19960;-83
2021/12/06 20:45:05;;;;;;;;;;;3.90;1.00;;;;;;5043196;28;20361;-83
2021/12/06 20:47:31;;;;;;;;;;;3.80;1.00;;;;;;5047857;28;19913;-82
2021/12/06 20:49:57;;;;;;;;;;;3.70;1.00;;;;;;5059008;28;19979;-82
2021/12/06 20:52:22;;;;;;;;;;;3.70;1.00;;;;;;5030495;28;19944;-83
2021/12/06 20:54:48;;;;;;;;;;;3.60;1.00;;;;;;5058890;28;19920;-84
2021/12/06 20:57:13;;;;;;;;;;;3.60;1.00;;;;;;5064215;28;19919;-84
2021/12/06 20:59:39;;;;;;;;;;;3.50;1.00;;;;;;5062771;28;20016;-83
2021/12/06 21:02:04;;;;;;;;;;;3.40;1.00;;;;;;5041871;28;19909;-84
2021/12/06 21:04:30;;;;;;;;;;;3.30;1.00;;;;;;5023257;28;19920;-84
2021/12/06 21:06:55;;;;;;;;;;;3.20;1.00;;;;;;5039870;28;19913;-83
2021/12/06 21:09:22;;;;;;;;;;;3.10;1.00;;;;;;5058834;28;20004;-84
2021/12/06 21:11:58;;;;;;;;;;;3.10;1.00;;;;;;5041094;28;19916;-85
2021/12/06 21:17:05;;;;;;;;;;;2.90;1.00;;;;;;5061818;28;20000;-85
2021/12/06 21:19:32;;;;;;;;;;;2.80;1.00;;;;;;5047976;28;19917;-85
2021/12/06 21:21:58;;;;;;;;;;;2.80;1.00;;;;;;5041330;28;19917;-84
2021/12/06 21:24:23;;;;;;;;;;;2.80;1.00;;;;;;5048411;28;19920;-85
2021/12/06 21:26:49;;;;;;;;;;;2.80;1.00;;;;;;5022152;28;19909;-84
2021/12/06 21:29:14;;;;;;;;;;;2.80;1.00;;;;;;5039577;28;19913;-84
2021/12/06 21:31:39;;;;;;;;;;;2.70;1.00;;;;;;5041166;28;20336;-84
2021/12/06 21:34:05;;;;;;;;;;;2.70;1.00;;;;;;5038523;28;19996;-83
2021/12/06 21:36:31;;;;;;;;;;;2.70;1.00;;;;;;5052938;28;20407;-83
2021/12/06 21:38:56;;;;;;;;;;;2.60;1.00;;;;;;5054131;28;20003;-83
2021/12/06 21:41:24;;;;;;;;;;;2.60;1.00;;;;;;5050123;28;19935;-84
2021/12/06 21:43:50;;;;;;;;;;;2.60;1.00;;;;;;5037727;28;20001;-82
2021/12/06 21:46:15;;;;;;;;;;;2.50;1.00;;;;;;5056070;28;20323;-82
2021/12/06 21:48:41;;;;;;;;;;;2.50;1.00;;;;;;5054589;28;19912;-82
2021/12/06 21:51:06;;;;;;;;;;;2.50;1.00;;;;;;5036750;28;19910;-83
2021/12/06 21:53:32;;;;;;;;;;;2.50;1.00;;;;;;5036354;28;19932;-82
2021/12/06 21:55:57;;;;;;;;;;;2.50;1.00;;;;;;5060601;28;19916;-81
2021/12/06 21:58:23;;;;;;;;;;;2.50;1.20;;;;;;5019118;28;19996;-81
2021/12/06 22:00:55;;;;;;;;;;;2.50;4.70;;;;;;5039731;28;19923;-82
2021/12/06 22:03:27;;;;;;;;;;;2.50;5.90;;;;;;5052213;28;20382;-83
2021/12/06 22:05:54;;;;;;;;;;;2.60;7.60;;;;;;5054092;28;19917;-83
2021/12/06 22:08:20;;;;;;;;;;;2.60;10.10;;;;;;5034617;28;19913;-84
2021/12/06 22:10:45;;;;;;;;;;;2.60;11.60;;;;;;5052429;28;20087;-81
2021/12/06 22:13:11;;;;;;;;;;;2.60;11.30;;;;;;5029918;28;19921;-85
2021/12/06 22:15:36;;;;;;;;;;;2.60;10.40;;;;;;5038545;28;19920;-83
2021/12/06 22:18:02;;;;;;;;;;;2.60;10.10;;;;;;5040819;28;19919;-82
2021/12/06 22:20:28;;;;;;;;;;;2.60;10.20;;;;;;5055241;28;19917;-82
2021/12/06 22:22:58;;;;;;;;;;;2.60;11.60;;;;;;5050244;28;20008;-81
2021/12/06 22:25:25;;;;;;;;;;;2.60;9.70;;;;;;5052274;28;19980;-86
2021/12/06 22:27:51;;;;;;;;;;;2.50;10.00;;;;;;5056668;28;20024;-85
2021/12/06 22:30:17;;;;;;;;;;;2.50;6.70;;;;;;5022704;28;19949;-85
2021/12/06 22:32:44;;;;;;;;;;;2.40;7.60;;;;;;5023412;28;19952;-85
2021/12/06 22:35:10;;;;;;;;;;;2.40;8.70;;;;;;5036414;28;19922;-85
2021/12/06 22:37:35;;;;;;;;;;;2.40;9.50;;;;;;5028199;28;20328;-86
2021/12/06 22:40:03;;;;;;;;;;;2.40;10.80;;;;;;5044179;28;19925;-86
2021/12/06 22:42:28;;;;;;;;;;;2.40;13.60;;;;;;5043889;28;20289;-86
2021/12/06 22:44:54;;;;;;;;;;;2.40;15.50;;;;;;5054579;28;19916;-86
2021/12/06 22:47:19;;;;;;;;;;;2.40;17.10;;;;;;5043742;28;20447;-86
2021/12/06 22:49:45;;;;;;;;;;;2.50;20.20;;;;;;5044929;28;19944;-86
2021/12/06 22:52:11;;;;;;;;;;;2.40;19.60;;;;;;5050981;28;19913;-86
2021/12/06 22:54:37;;;;;;;;;;;2.40;20.60;;;;;;5074352;28;19983;-86
2021/12/06 22:57:03;;;;;;;;;;;2.40;21.90;;;;;;5051165;28;19988;-86
2021/12/06 22:59:31;;;;;;;;;;;2.50;23.60;;;;;;5063743;28;20015;-84
2021/12/06 23:01:57;;;;;;;;;;;2.60;25.80;;;;;;5049383;28;19959;-84
2021/12/06 23:04:22;;;;;;;;;;;2.60;28.30;;;;;;5058051;28;20022;-86
2021/12/06 23:06:48;;;;;;;;;;;2.70;29.30;;;;;;5045156;28;19921;-85
2021/12/06 23:09:13;;;;;;;;;;;2.70;30.70;;;;;;5063861;28;19944;-87
2021/12/06 23:11:40;;;;;;;;;;;2.80;32.40;;;;;;5054563;28;19912;-86
2021/12/06 23:14:06;;;;;;;;;;;2.90;34.30;;;;;;5070965;28;20016;-86
2021/12/06 23:16:32;;;;;;;;;;;2.90;36.00;;;;;;5063293;28;19913;-87
2021/12/06 23:18:58;;;;;;;;;;;3.00;36.80;;;;;;5070819;28;19921;-86
2021/12/06 23:21:23;;;;;;;;;;;3.00;37.90;;;;;;5065279;28;19959;-86
2021/12/06 23:23:49;;;;;;;;;;;3.00;38.40;;;;;;5033117;28;19913;-86
2021/12/06 23:26:15;;;;;;;;;;;3.00;38.60;;;;;;5056968;28;19913;-84
2021/12/06 23:28:41;;;;;;;;;;;3.00;38.60;;;;;;5041838;28;19913;-84
2021/12/06 23:31:10;;;;;;;;;;;3.10;39.20;;;;;;5046793;28;20009;-84
2021/12/06 23:33:36;;;;;;;;;;;3.10;39.70;;;;;;5054200;28;19996;-84
2021/12/06 23:36:04;;;;;;;;;;;3.10;40.10;;;;;;5067013;28;19944;-83
2021/12/06 23:38:37;;;;;;;;;;;3.10;40.60;;;;;;5058827;28;19963;-84
2021/12/06 23:41:14;;;;;;;;;;;3.20;41.10;;;;;;5044256;28;20357;-84
2021/12/06 23:46:36;;;;;;;;;;;3.20;41.70;;;;;;5073755;28;19915;-84
2021/12/06 23:49:04;;;;;;;;;;;3.30;42.00;;;;;;5069345;28;20339;-84
2021/12/06 23:51:30;;;;;;;;;;;3.30;41.90;;;;;;5055553;28;20288;-85
2021/12/06 23:53:56;;;;;;;;;;;3.30;41.40;;;;;;5062505;28;20394;-85
2021/12/06 23:56:23;;;;;;;;;;;3.30;40.10;;;;;;5067828;28;19917;-85
2021/12/06 23:58:48;;;;;;;;;;;3.30;38.80;;;;;;5055528;28;19917;-85
